Time;durP1;ratioP1;P1;durP2;ratioP2;P2;SDS_P1;SDS_P2;PMS_P1;PMS_P2;Temp;Humidity;BMP_temperature;BMP_pressure;BME280_temperature;BME280_humidity;BME280_pressure;Samples;Min_cycle;Max_cycle;Signal;HPM_P1;HPM_P2
2023/04/09 00:01:15;;;;;;;37.13;19.83;;;11.90;81.00;;;;;;5051367;28;20187;-77
2023/04/09 00:03:43;;;;;;;36.77;18.53;;;11.90;80.90;;;;;;5051542;28;20226;-77
2023/04/09 00:06:13;;;;;;;31.87;18.73;;;11.80;80.60;;;;;;5046263;28;20236;-78
2023/04/09 00:08:41;;;;;;;34.23;19.50;;;11.80;81.30;;;;;;5052251;28;20210;-78
2023/04/09 00:11:10;;;;;;;35.40;20.37;;;11.80;81.30;;;;;;5045125;28;20195;-78
2023/04/09 00:13:38;;;;;;;34.37;19.43;;;11.80;81.20;;;;;;5054623;28;20202;-78
2023/04/09 00:16:07;;;;;;;36.10;19.87;;;11.80;81.20;;;;;;5050947;28;20559;-78
2023/04/09 00:18:36;;;;;;;36.43;20.23;;;11.80;81.30;;;;;;5069518;28;20213;-78
2023/04/09 00:21:05;;;;;;;43.27;21.37;;;11.80;81.30;;;;;;5051051;28;20190;-78
2023/04/09 00:23:35;;;;;;;40.57;21.50;;;11.80;81.40;;;;;;5057884;28;20602;-78
2023/04/09 00:26:04;;;;;;;36.80;21.27;;;11.80;81.80;;;;;;5052729;28;20191;-78
2023/04/09 00:28:32;;;;;;;41.43;21.87;;;11.80;81.80;;;;;;5061701;28;20203;-78
2023/04/09 00:31:01;;;;;;;36.83;20.97;;;11.70;82.00;;;;;;5057410;28;20191;-78
2023/04/09 00:33:30;;;;;;;42.90;21.87;;;11.70;81.70;;;;;;5053802;28;20223;-78
2023/04/09 00:35:58;;;;;;;40.10;21.27;;;11.70;82.20;;;;;;5058371;28;20202;-79
2023/04/09 00:38:27;;;;;;;34.57;20.27;;;11.70;82.20;;;;;;5050508;28;20671;-78
2023/04/09 00:40:56;;;;;;;37.23;19.33;;;11.70;82.50;;;;;;5056629;28;20599;-78
2023/04/09 00:43:25;;;;;;;42.50;21.63;;;11.70;82.50;;;;;;5054597;28;20184;-78
2023/04/09 00:45:54;;;;;;;42.27;20.70;;;11.60;82.80;;;;;;5052079;28;20183;-78
2023/04/09 00:48:23;;;;;;;38.33;22.17;;;11.60;82.70;;;;;;5049696;28;20184;-78
2023/04/09 00:50:51;;;;;;;38.07;21.17;;;11.60;82.60;;;;;;5055749;28;21228;-78
2023/04/09 00:53:20;;;;;;;37.40;21.50;;;11.60;82.80;;;;;;5054915;28;20183;-78
2023/04/09 00:55:49;;;;;;;38.70;21.57;;;11.60;83.00;;;;;;5054552;28;20191;-78
2023/04/09 00:58:18;;;;;;;37.73;20.57;;;11.60;83.20;;;;;;5050044;28;20195;-78
2023/04/09 01:00:47;;;;;;;35.93;20.47;;;11.50;83.10;;;;;;5046920;28;20253;-78
2023/04/09 01:03:15;;;;;;;37.57;21.13;;;11.50;83.20;;;;;;5049960;28;20195;-78
2023/04/09 01:05:51;;;;;;;37.47;20.47;;;11.40;83.20;;;;;;5051483;28;20183;-79
2023/04/09 01:08:32;;;;;;;37.60;20.53;;;11.40;83.60;;;;;;5047700;28;20560;-78
2023/04/09 01:11:09;;;;;;;35.53;19.40;;;11.40;84.30;;;;;;5043922;28;20187;-79
2023/04/09 01:13:47;;;;;;;34.90;19.30;;;11.40;83.40;;;;;;5048818;28;20249;-78
2023/04/09 01:16:18;;;;;;;39.83;20.80;;;11.40;83.70;;;;;;5046371;28;20245;-78
2023/04/09 01:18:52;;;;;;;38.30;21.00;;;11.40;83.40;;;;;;5048402;28;20214;-77
2023/04/09 01:21:26;;;;;;;39.40;19.93;;;11.40;84.40;;;;;;5052297;28;20236;-79
2023/04/09 01:24:02;;;;;;;33.83;19.73;;;11.40;84.00;;;;;;5049893;28;20219;-78
2023/04/09 01:26:45;;;;;;;36.10;18.90;;;11.40;83.80;;;;;;5052582;28;20213;-78
2023/04/09 01:29:18;;;;;;;40.23;20.37;;;11.40;83.90;;;;;;5042914;28;20203;-78
2023/04/09 01:31:47;;;;;;;37.20;19.70;;;11.30;84.30;;;;;;5037760;28;20222;-78
2023/04/09 01:34:16;;;;;;;35.40;20.10;;;11.40;84.00;;;;;;5048385;28;20191;-79
2023/04/09 01:36:49;;;;;;;37.33;21.17;;;11.40;84.00;;;;;;5050823;28;20245;-78
2023/04/09 01:39:17;;;;;;;33.07;19.47;;;11.40;84.00;;;;;;5045957;28;20234;-78
2023/04/09 01:41:48;;;;;;;34.80;19.07;;;11.40;84.50;;;;;;5053523;28;20214;-79
2023/04/09 01:44:19;;;;;;;36.23;19.37;;;11.30;83.80;;;;;;5050660;28;20191;-79
2023/04/09 01:46:48;;;;;;;36.37;19.57;;;11.40;84.00;;;;;;5053366;28;20191;-78
2023/04/09 01:49:18;;;;;;;37.07;19.87;;;11.30;84.00;;;;;;5047943;28;20542;-78
2023/04/09 01:51:48;;;;;;;32.33;18.67;;;11.40;84.00;;;;;;5054894;28;20199;-78
2023/04/09 01:54:16;;;;;;;40.37;19.83;;;11.30;84.10;;;;;;5047727;28;20256;-79
2023/04/09 01:56:48;;;;;;;38.43;19.33;;;11.40;84.10;;;;;;5053459;28;20961;-78
2023/04/09 01:59:18;;;;;;;33.50;19.80;;;11.30;84.10;;;;;;5048280;28;20277;-78
2023/04/09 02:01:47;;;;;;;34.10;19.07;;;11.40;84.40;;;;;;5051560;28;20203;-78
2023/04/09 02:04:22;;;;;;;35.50;20.17;;;11.40;84.60;;;;;;5047838;28;20199;-79
2023/04/09 02:06:57;;;;;;;36.00;19.93;;;11.30;84.70;;;;;;5048652;28;20277;-79
2023/04/09 02:09:29;;;;;;;37.50;19.20;;;11.30;84.60;;;;;;5051951;28;20190;-78
2023/04/09 02:12:01;;;;;;;37.80;20.17;;;11.30;84.50;;;;;;5050767;28;20236;-78
2023/04/09 02:14:32;;;;;;;35.23;20.13;;;11.30;85.20;;;;;;5053419;28;20194;-78
2023/04/09 02:17:01;;;;;;;32.70;19.13;;;11.30;85.30;;;;;;5053218;28;20195;-78
2023/04/09 02:19:39;;;;;;;38.23;19.80;;;11.20;85.40;;;;;;5062814;28;20229;-78
2023/04/09 02:22:08;;;;;;;35.10;19.53;;;11.20;85.60;;;;;;5042866;28;20884;-78
2023/04/09 02:24:36;;;;;;;36.83;18.77;;;11.30;85.50;;;;;;5051654;28;20651;-79
2023/04/09 02:27:05;;;;;;;35.70;18.60;;;11.20;85.30;;;;;;5051069;28;20221;-79
2023/04/09 02:29:34;;;;;;;37.87;19.27;;;11.20;85.30;;;;;;5054913;28;20209;-77
2023/04/09 02:32:03;;;;;;;33.53;19.07;;;11.30;85.50;;;;;;5045351;28;20237;-78
2023/04/09 02:34:31;;;;;;;33.63;18.27;;;11.20;85.60;;;;;;5062945;28;20234;-78
2023/04/09 02:36:59;;;;;;;33.93;19.33;;;11.30;85.50;;;;;;5051484;28;20198;-80
2023/04/09 02:39:28;;;;;;;33.20;18.30;;;11.30;85.50;;;;;;5050203;28;20264;-78
2023/04/09 02:41:56;;;;;;;33.60;19.27;;;11.20;85.60;;;;;;5051717;28;20190;-78
2023/04/09 02:44:25;;;;;;;32.67;19.10;;;11.20;85.60;;;;;;5052551;28;20270;-78
2023/04/09 02:46:54;;;;;;;35.63;19.73;;;11.20;85.50;;;;;;5053672;28;20218;-78
2023/04/09 02:49:23;;;;;;;34.00;19.13;;;11.20;85.70;;;;;;5049010;28;20222;-78
2023/04/09 02:51:51;;;;;;;31.60;19.47;;;11.20;85.70;;;;;;5047387;28;20187;-78
2023/04/09 02:54:19;;;;;;;33.20;18.37;;;11.10;85.70;;;;;;5049535;28;20195;-79
2023/04/09 02:56:48;;;;;;;32.00;18.43;;;11.20;86.50;;;;;;5040134;28;20202;-78
2023/04/09 02:59:16;;;;;;;33.47;18.23;;;11.10;85.80;;;;;;5039824;28;20288;-78
2023/04/09 03:01:44;;;;;;;30.07;17.80;;;11.10;85.90;;;;;;5045385;28;20856;-79
2023/04/09 03:04:14;;;;;;;31.33;17.73;;;11.10;85.90;;;;;;5041413;28;20594;-78
2023/04/09 03:06:43;;;;;;;39.63;18.73;;;11.10;85.90;;;;;;5042284;28;20592;-78
2023/04/09 03:09:11;;;;;;;32.03;18.40;;;11.20;85.70;;;;;;5038641;28;20215;-78
2023/04/09 03:11:39;;;;;;;37.60;18.07;;;11.20;85.60;;;;;;5040660;28;20234;-77
2023/04/09 03:14:08;;;;;;;32.07;17.73;;;11.10;86.00;;;;;;5046436;28;20232;-78
2023/04/09 03:16:36;;;;;;;33.13;18.67;;;11.10;86.40;;;;;;5050686;28;20245;-77
2023/04/09 03:19:04;;;;;;;37.20;19.43;;;11.10;86.20;;;;;;5045077;28;20234;-78
2023/04/09 03:21:34;;;;;;;35.50;18.97;;;11.10;86.40;;;;;;5041287;28;20250;-78
2023/04/09 03:24:02;;;;;;;31.30;17.30;;;11.10;86.30;;;;;;5050788;28;20248;-77
2023/04/09 03:26:35;;;;;;;32.77;19.17;;;11.10;86.30;;;;;;5043727;28;20199;-77
2023/04/09 03:29:03;;;;;;;34.37;19.17;;;11.10;86.50;;;;;;5041476;28;20199;-79
2023/04/09 03:31:32;;;;;;;29.33;16.83;;;11.10;86.70;;;;;;5033031;28;20236;-76
2023/04/09 03:34:00;;;;;;;32.40;17.70;;;11.00;86.60;;;;;;5047870;28;20195;-78
2023/04/09 03:36:30;;;;;;;32.93;19.10;;;11.10;86.50;;;;;;5043874;28;20547;-78
2023/04/09 03:39:00;;;;;;;30.33;17.10;;;11.10;86.70;;;;;;5052575;28;20195;-79
2023/04/09 03:41:29;;;;;;;28.57;17.03;;;11.10;86.70;;;;;;5041898;28;20218;-77
2023/04/09 03:43:57;;;;;;;30.47;17.87;;;11.10;86.90;;;;;;5054511;28;20195;-78
2023/04/09 03:46:25;;;;;;;33.03;18.07;;;11.20;86.60;;;;;;5043303;28;20191;-77
2023/04/09 03:48:54;;;;;;;29.60;15.73;;;11.20;86.50;;;;;;5049601;28;20260;-79
2023/04/09 03:51:22;;;;;;;30.40;17.03;;;11.20;86.50;;;;;;5045853;28;20286;-76
2023/04/09 03:53:50;;;;;;;29.93;17.30;;;11.20;86.60;;;;;;5046063;28;20203;-78
2023/04/09 03:56:21;;;;;;;32.17;16.90;;;11.20;86.50;;;;;;5043251;28;20317;-79
2023/04/09 03:58:49;;;;;;;31.80;17.27;;;11.20;86.60;;;;;;5053123;28;20195;-78
2023/04/09 04:01:18;;;;;;;31.30;17.27;;;11.30;86.40;;;;;;5057587;28;20305;-78
2023/04/09 04:03:46;;;;;;;31.67;17.80;;;11.30;86.40;;;;;;5057096;28;20206;-78
2023/04/09 04:06:15;;;;;;;29.93;16.90;;;11.30;86.40;;;;;;5055274;28;20207;-78
2023/04/09 04:08:44;;;;;;;29.47;16.80;;;11.30;86.50;;;;;;5061702;28;20653;-78
2023/04/09 04:11:12;;;;;;;31.30;17.50;;;11.40;86.60;;;;;;5054046;28;20191;-78
2023/04/09 04:13:42;;;;;;;29.43;17.30;;;11.40;86.50;;;;;;5052780;28;20600;-80
2023/04/09 04:16:10;;;;;;;28.07;16.90;;;11.30;86.30;;;;;;5054793;28;20198;-78
2023/04/09 04:18:39;;;;;;;31.53;17.23;;;11.40;86.60;;;;;;5048025;28;20195;-78
2023/04/09 04:21:13;;;;;;;34.17;17.13;;;11.40;86.50;;;;;;5047638;28;20805;-78
2023/04/09 04:23:42;;;;;;;27.90;15.87;;;11.40;86.40;;;;;;5050621;28;20195;-78
2023/04/09 04:26:10;;;;;;;29.77;16.30;;;11.50;86.20;;;;;;5054548;28;20191;-78
2023/04/09 04:28:39;;;;;;;29.87;16.60;;;11.50;86.00;;;;;;5050474;28;20213;-77
2023/04/09 04:31:10;;;;;;;31.33;17.37;;;11.60;86.00;;;;;;5050559;28;20199;-78
2023/04/09 04:33:39;;;;;;;26.97;16.67;;;11.60;85.80;;;;;;5050885;28;20292;-78
2023/04/09 04:36:09;;;;;;;29.80;17.27;;;11.60;85.60;;;;;;5054762;28;20191;-79
2023/04/09 04:38:37;;;;;;;34.43;17.27;;;11.60;85.50;;;;;;5052174;28;20245;-78
2023/04/09 04:41:06;;;;;;;30.10;16.87;;;11.60;85.60;;;;;;5052334;28;20222;-76
2023/04/09 04:43:34;;;;;;;34.40;17.30;;;11.70;85.50;;;;;;5056120;28;20240;-77
2023/04/09 04:46:03;;;;;;;28.47;16.50;;;11.70;85.40;;;;;;5052634;28;20750;-79
2023/04/09 04:48:32;;;;;;;26.87;16.67;;;11.70;85.30;;;;;;5055765;28;20244;-77
2023/04/09 04:51:02;;;;;;;30.73;16.93;;;11.80;85.30;;;;;;5050021;28;20195;-78
2023/04/09 04:53:30;;;;;;;30.33;15.83;;;11.80;85.40;;;;;;5049709;28;20636;-78
2023/04/09 04:55:58;;;;;;;29.00;16.27;;;11.80;85.20;;;;;;5050550;28;20640;-78
2023/04/09 04:58:28;;;;;;;29.27;16.73;;;11.90;85.10;;;;;;5050203;28;20277;-78
2023/04/09 05:00:56;;;;;;;30.57;16.33;;;11.90;85.00;;;;;;5049712;28;20242;-77
2023/04/09 05:03:25;;;;;;;29.93;16.47;;;12.00;85.00;;;;;;5053047;28;20187;-79
2023/04/09 05:05:56;;;;;;;27.70;16.67;;;12.00;84.80;;;;;;5053707;28;20660;-77
2023/04/09 05:08:24;;;;;;;28.43;16.63;;;12.00;84.60;;;;;;5054333;28;20190;-77
2023/04/09 05:10:54;;;;;;;31.53;16.77;;;12.10;84.50;;;;;;5045745;28;20194;-77
2023/04/09 05:13:23;;;;;;;28.60;16.77;;;12.10;84.40;;;;;;5049505;28;20680;-77
2023/04/09 05:15:52;;;;;;;29.63;17.70;;;12.10;84.20;;;;;;5051443;28;20282;-77
2023/04/09 05:18:20;;;;;;;30.50;15.87;;;12.20;84.10;;;;;;5050383;28;20198;-78
2023/04/09 05:20:48;;;;;;;28.17;15.97;;;12.30;84.10;;;;;;5053556;28;20198;-78
2023/04/09 05:23:18;;;;;;;25.53;15.63;;;12.30;83.90;;;;;;5045659;28;20261;-77
2023/04/09 05:25:49;;;;;;;27.17;15.87;;;12.40;83.90;;;;;;5049020;28;20191;-78
2023/04/09 05:28:17;;;;;;;33.93;17.27;;;12.40;83.80;;;;;;5043811;28;20199;-77
2023/04/09 05:30:47;;;;;;;29.07;17.20;;;12.50;83.50;;;;;;5050323;28;20202;-77
2023/04/09 05:33:15;;;;;;;29.87;16.23;;;12.60;83.60;;;;;;5051117;28;20634;-78
2023/04/09 05:35:43;;;;;;;27.03;16.37;;;12.60;83.30;;;;;;5048357;28;20195;-77
2023/04/09 05:38:12;;;;;;;27.67;16.73;;;12.60;82.90;;;;;;5052751;28;20663;-78
2023/04/09 05:40:43;;;;;;;29.37;16.07;;;12.70;82.90;;;;;;5051821;28;20191;-77
2023/04/09 05:43:12;;;;;;;29.70;16.47;;;12.80;82.60;;;;;;5055608;28;20671;-78
2023/04/09 05:45:40;;;;;;;26.90;16.57;;;12.80;82.70;;;;;;5054924;28;20198;-78
2023/04/09 05:48:09;;;;;;;29.73;16.30;;;12.90;82.70;;;;;;5051406;28;20268;-77
2023/04/09 05:50:37;;;;;;;29.00;17.07;;;12.90;82.00;;;;;;5050624;28;20191;-78
2023/04/09 05:53:21;;;;;;;30.47;17.07;;;13.00;82.00;;;;;;5051863;28;21997;-78
2023/04/09 05:55:51;;;;;;;33.53;18.57;;;13.10;82.10;;;;;;5060351;28;20191;-74
2023/04/09 05:58:20;;;;;;;29.77;16.50;;;13.10;82.00;;;;;;5049938;28;20203;-78
2023/04/09 06:00:50;;;;;;;26.70;15.60;;;13.20;81.90;;;;;;5058338;28;20191;-77
2023/04/09 06:03:19;;;;;;;28.67;16.67;;;13.30;81.80;;;;;;5049343;28;20214;-77
2023/04/09 06:05:48;;;;;;;28.40;16.30;;;13.30;81.70;;;;;;5051870;28;20214;-76
2023/04/09 06:08:16;;;;;;;27.83;16.40;;;13.40;81.40;;;;;;5050872;28;20184;-76
2023/04/09 06:10:45;;;;;;;28.97;16.43;;;13.40;81.20;;;;;;5053290;28;20534;-76
2023/04/09 06:13:15;;;;;;;26.63;15.90;;;13.50;81.30;;;;;;5051157;28;20203;-77
2023/04/09 06:15:43;;;;;;;26.67;16.13;;;13.50;81.10;;;;;;5051011;28;20203;-77
2023/04/09 06:18:12;;;;;;;27.27;15.10;;;13.60;81.10;;;;;;5048210;28;20196;-76
2023/04/09 06:20:40;;;;;;;24.87;15.03;;;13.60;80.70;;;;;;5048540;28;20664;-77
2023/04/09 06:23:08;;;;;;;23.67;15.70;;;13.60;80.50;;;;;;5057077;28;20223;-77
2023/04/09 06:25:37;;;;;;;25.00;14.40;;;13.70;80.50;;;;;;5049252;28;20195;-77
2023/04/09 06:28:05;;;;;;;26.47;15.03;;;13.70;79.90;;;;;;5051207;28;20198;-76
2023/04/09 06:30:36;;;;;;;27.03;15.60;;;13.80;80.00;;;;;;5048565;28;20252;-77
2023/04/09 06:33:04;;;;;;;30.17;15.27;;;13.90;80.00;;;;;;5053223;28;20321;-77
2023/04/09 06:35:33;;;;;;;25.47;14.60;;;14.00;80.20;;;;;;5049430;28;20192;-77
2023/04/09 06:38:01;;;;;;;25.07;14.13;;;14.10;80.10;;;;;;5050748;28;20671;-76
2023/04/09 06:40:30;;;;;;;25.37;15.60;;;14.20;78.90;;;;;;5049881;28;20241;-77
2023/04/09 06:42:58;;;;;;;27.27;14.93;;;14.30;78.40;;;;;;5050531;28;20219;-77
2023/04/09 06:45:27;;;;;;;23.63;14.43;;;14.30;77.50;;;;;;5054965;28;20187;-78
2023/04/09 06:47:56;;;;;;;25.60;15.57;;;14.40;77.40;;;;;;5055854;28;20785;-76
2023/04/09 06:50:25;;;;;;;24.20;14.53;;;14.40;77.40;;;;;;5042889;28;20202;-77
2023/04/09 06:52:54;;;;;;;25.23;14.43;;;14.50;77.50;;;;;;5046063;28;20656;-76
2023/04/09 06:55:22;;;;;;;25.33;14.73;;;14.50;77.10;;;;;;5048585;28;20247;-78
2023/04/09 06:57:50;;;;;;;26.13;15.33;;;14.60;77.00;;;;;;5050837;28;20248;-77
2023/04/09 07:00:19;;;;;;;23.47;13.37;;;14.60;76.20;;;;;;5056289;28;20195;-78
2023/04/09 07:02:47;;;;;;;19.67;11.80;;;14.70;76.50;;;;;;5048204;28;20650;-77
2023/04/09 07:05:17;;;;;;;23.77;14.00;;;14.80;75.80;;;;;;5051446;28;20215;-77
2023/04/09 07:07:46;;;;;;;23.80;13.20;;;14.90;75.40;;;;;;5048410;28;20604;-77
2023/04/09 07:10:14;;;;;;;19.30;10.97;;;14.90;74.70;;;;;;5045873;28;20202;-77
2023/04/09 07:12:42;;;;;;;19.90;12.67;;;15.00;75.00;;;;;;5058779;28;20198;-77
2023/04/09 07:15:11;;;;;;;19.17;12.37;;;15.00;75.20;;;;;;5052188;28;20195;-76
2023/04/09 07:17:39;;;;;;;22.00;13.30;;;15.00;74.50;;;;;;5050262;28;20233;-79
2023/04/09 07:20:08;;;;;;;20.17;12.37;;;15.00;73.90;;;;;;5048318;28;20195;-77
2023/04/09 07:22:38;;;;;;;21.60;13.17;;;15.00;74.00;;;;;;5050703;28;20256;-77
2023/04/09 07:25:08;;;;;;;20.30;12.83;;;15.00;74.10;;;;;;5039656;28;20264;-77
2023/04/09 07:27:36;;;;;;;22.23;13.23;;;15.00;74.30;;;;;;5043181;28;20682;-77
2023/04/09 07:30:05;;;;;;;25.47;14.67;;;15.00;74.30;;;;;;5054681;28;20239;-77
2023/04/09 07:32:34;;;;;;;24.50;13.87;;;15.10;74.40;;;;;;5047923;28;20264;-77
2023/04/09 07:35:04;;;;;;;24.53;14.70;;;15.10;74.40;;;;;;5045167;28;20644;-77
2023/04/09 07:37:32;;;;;;;24.33;13.97;;;15.10;73.80;;;;;;5048619;28;20199;-77
2023/04/09 07:40:03;;;;;;;23.83;14.13;;;15.20;74.00;;;;;;5050968;28;20199;-77
2023/04/09 07:42:31;;;;;;;23.77;14.00;;;15.20;73.50;;;;;;5051475;28;20222;-76
2023/04/09 07:44:59;;;;;;;20.43;13.27;;;15.30;73.80;;;;;;5048859;28;20202;-77
2023/04/09 07:47:28;;;;;;;21.87;12.70;;;15.40;73.80;;;;;;5057917;28;20648;-75
2023/04/09 07:49:56;;;;;;;19.83;11.57;;;15.50;73.80;;;;;;5056248;28;20199;-77
2023/04/09 07:52:25;;;;;;;20.23;10.87;;;15.50;71.10;;;;;;5057446;28;20460;-77
2023/04/09 07:54:53;;;;;;;20.10;10.83;;;15.60;70.70;;;;;;5043041;28;20668;-75
2023/04/09 07:57:23;;;;;;;16.87;10.17;;;15.70;71.00;;;;;;5058072;28;20198;-76
2023/04/09 07:59:52;;;;;;;18.20;11.47;;;15.80;70.70;;;;;;5060490;28;20589;-77
2023/04/09 08:02:21;;;;;;;18.90;11.53;;;15.90;71.00;;;;;;5051743;28;20207;-79
2023/04/09 08:04:50;;;;;;;19.23;11.33;;;15.90;70.10;;;;;;5065253;28;20289;-78
2023/04/09 08:07:19;;;;;;;19.40;11.40;;;16.00;68.80;;;;;;5051991;28;20648;-77
2023/04/09 08:09:47;;;;;;;17.80;10.63;;;16.00;68.30;;;;;;5053994;28;20313;-78
2023/04/09 08:12:15;;;;;;;18.53;11.40;;;16.20;69.10;;;;;;5053036;28;20594;-78
2023/04/09 08:14:45;;;;;;;18.67;10.93;;;16.20;69.30;;;;;;5052365;28;20643;-77
2023/04/09 08:17:14;;;;;;;18.67;11.80;;;16.30;69.60;;;;;;5054535;28;20647;-78
2023/04/09 08:19:42;;;;;;;25.63;12.63;;;16.40;68.70;;;;;;5052444;28;20198;-77
2023/04/09 08:22:10;;;;;;;19.13;11.23;;;16.40;67.70;;;;;;5056020;28;20220;-77
2023/04/09 08:24:39;;;;;;;17.83;11.00;;;16.50;67.50;;;;;;5054117;28;20225;-77
2023/04/09 08:27:07;;;;;;;20.17;11.33;;;16.70;68.10;;;;;;5048581;28;20199;-77
2023/04/09 08:29:35;;;;;;;20.23;11.13;;;16.70;67.60;;;;;;5055820;28;20206;-77
2023/04/09 08:32:05;;;;;;;16.90;10.53;;;16.90;67.20;;;;;;5048874;28;20223;-77
2023/04/09 08:34:34;;;;;;;16.93;10.73;;;17.00;67.40;;;;;;5049212;28;20218;-78
2023/04/09 08:37:09;;;;;;;17.97;11.70;;;17.10;67.20;;;;;;5051483;28;20194;-80
2023/04/09 08:39:37;;;;;;;18.27;11.10;;;17.20;65.00;;;;;;5054714;28;20193;-78
2023/04/09 08:42:08;;;;;;;16.40;10.87;;;17.30;65.00;;;;;;5050646;28;20243;-77
2023/04/09 08:44:36;;;;;;;17.27;10.33;;;17.30;65.10;;;;;;5046619;28;20667;-76
2023/04/09 08:47:10;;;;;;;20.53;11.13;;;17.40;65.00;;;;;;5046859;28;20202;-77
2023/04/09 08:49:40;;;;;;;19.37;11.30;;;17.50;64.80;;;;;;5051673;28;20245;-78
2023/04/09 08:55:03;;;;;;;18.53;11.67;;;17.60;64.50;;;;;;5047709;28;20194;-77
2023/04/09 08:57:43;;;;;;;21.90;12.20;;;17.60;63.10;;;;;;5049093;28;20690;-78
2023/04/09 09:00:12;;;;;;;17.77;11.40;;;17.60;62.70;;;;;;5047109;28;20201;-76
2023/04/09 09:03:01;;;;;;;17.23;10.90;;;17.70;63.20;;;;;;5047898;28;20199;-78
2023/04/09 09:05:41;;;;;;;17.13;10.57;;;17.80;63.30;;;;;;5042871;28;20234;-76
2023/04/09 09:08:29;;;;;;;17.60;10.77;;;17.90;63.50;;;;;;5050627;28;20198;-79
2023/04/09 09:11:07;;;;;;;18.47;11.40;;;17.90;60.40;;;;;;5048165;28;20198;-75
2023/04/09 09:13:35;;;;;;;17.00;9.80;;;17.90;60.20;;;;;;5050183;28;20659;-76
2023/04/09 09:16:13;;;;;;;16.50;9.80;;;17.90;60.80;;;;;;5049718;28;20641;-75
2023/04/09 09:18:45;;;;;;;13.37;8.23;;;18.00;61.50;;;;;;5049691;28;20663;-74
2023/04/09 09:21:14;;;;;;;12.80;8.93;;;18.00;61.30;;;;;;5048062;28;20183;-75
2023/04/09 09:23:43;;;;;;;15.57;8.97;;;18.10;60.50;;;;;;5050546;28;20223;-74
2023/04/09 09:26:13;;;;;;;14.60;9.63;;;18.10;60.40;;;;;;5049603;28;20605;-75
2023/04/09 09:28:41;;;;;;;16.10;9.23;;;18.20;60.70;;;;;;5049449;28;20199;-75
2023/04/09 09:31:11;;;;;;;13.97;9.60;;;18.20;60.80;;;;;;5048478;28;20946;-74
2023/04/09 09:33:40;;;;;;;19.03;10.67;;;18.20;60.50;;;;;;5050288;28;20222;-75
2023/04/09 09:36:10;;;;;;;17.80;11.53;;;18.20;59.80;;;;;;5044954;28;20195;-76
2023/04/09 09:38:53;;;;;;;16.10;9.83;;;18.30;59.90;;;;;;5051364;28;20225;-75
2023/04/09 09:41:23;;;;;;;18.70;10.13;;;18.30;59.10;;;;;;5046669;28;20613;-75
2023/04/09 09:43:52;;;;;;;16.73;9.23;;;18.30;59.20;;;;;;5049520;28;20222;-74
2023/04/09 09:46:21;;;;;;;14.47;8.63;;;18.40;59.60;;;;;;5041214;28;20270;-76
2023/04/09 09:48:50;;;;;;;18.63;9.87;;;18.40;59.30;;;;;;5048282;28;20274;-74
2023/04/09 09:51:26;;;;;;;14.67;9.40;;;18.50;58.90;;;;;;5049736;28;20559;-75
2023/04/09 09:53:57;;;;;;;18.70;9.90;;;18.50;59.20;;;;;;5045320;28;20248;-75
2023/04/09 09:56:31;;;;;;;21.13;9.93;;;18.50;59.20;;;;;;5048601;28;20187;-74
2023/04/09 09:59:07;;;;;;;14.77;8.77;;;18.50;59.10;;;;;;5049080;28;20190;-75
2023/04/09 10:01:37;;;;;;;15.23;8.63;;;18.60;58.50;;;;;;5044811;28;20209;-75
2023/04/09 10:04:12;;;;;;;14.87;8.87;;;18.60;59.00;;;;;;5048846;28;20217;-76
2023/04/09 10:06:43;;;;;;;14.47;9.30;;;18.60;58.60;;;;;;5049874;28;20186;-75
2023/04/09 10:09:13;;;;;;;14.43;8.43;;;18.70;58.70;;;;;;5047103;28;20249;-74
2023/04/09 10:11:44;;;;;;;13.73;8.10;;;18.70;58.60;;;;;;5055963;28;20187;-74
2023/04/09 10:14:13;;;;;;;13.27;8.93;;;18.70;57.40;;;;;;5051206;28;20202;-74
2023/04/09 10:16:42;;;;;;;16.03;9.03;;;18.80;57.90;;;;;;5046368;28;20604;-73
2023/04/09 10:19:12;;;;;;;13.43;8.83;;;18.80;57.90;;;;;;5053227;28;20717;-73
2023/04/09 10:21:56;;;;;;;12.70;8.33;;;18.90;58.10;;;;;;5049285;28;21751;-74
2023/04/09 10:24:25;;;;;;;12.33;8.20;;;19.00;58.30;;;;;;5045413;28;20542;-73
2023/04/09 10:26:55;;;;;;;13.10;8.93;;;19.10;57.90;;;;;;5052436;28;20195;-72
2023/04/09 10:29:28;;;;;;;16.03;10.40;;;19.10;58.30;;;;;;5050017;28;20188;-73
2023/04/09 10:32:05;;;;;;;24.80;12.97;;;19.20;58.10;;;;;;5044880;28;20241;-72
2023/04/09 10:34:36;;;;;;;18.17;10.33;;;19.30;58.30;;;;;;5064766;28;20217;-73
2023/04/09 10:37:08;;;;;;;16.93;10.87;;;19.30;58.20;;;;;;5047086;28;20183;-72
2023/04/09 10:39:41;;;;;;;18.92;10.05;;;19.40;58.00;;;;;;5045611;28;20191;-74
2023/04/09 10:42:14;;;;;;;15.43;9.15;;;19.50;57.50;;;;;;5054299;28;20603;-73
2023/04/09 10:44:43;;;;;;;15.88;8.65;;;19.50;56.30;;;;;;5055829;28;20261;-76
2023/04/09 10:47:11;;;;;;;14.55;8.95;;;19.50;55.90;;;;;;5056461;28;20329;-73
2023/04/09 10:49:41;;;;;;;13.52;8.73;;;19.60;56.50;;;;;;5051120;28;20686;-73
2023/04/09 10:52:14;;;;;;;13.73;8.23;;;19.80;57.10;;;;;;5048847;28;20194;-74
2023/04/09 10:54:48;;;;;;;12.93;8.20;;;19.80;56.50;;;;;;5047739;28;20198;-74
2023/04/09 10:57:21;;;;;;;16.38;9.13;;;19.90;56.00;;;;;;5049205;28;20226;-74
2023/04/09 10:59:51;;;;;;;13.23;8.73;;;20.00;56.30;;;;;;5052569;28;20203;-73
2023/04/09 11:02:53;;;;;;;13.88;8.15;;;20.00;56.20;;;;;;5047392;28;20698;-74
2023/04/09 11:05:43;;;;;;;13.48;9.02;;;20.10;56.20;;;;;;5047416;28;20973;-73
2023/04/09 11:08:14;;;;;;;14.18;8.18;;;19.90;53.90;;;;;;5044111;28;20195;-73
2023/04/09 11:10:48;;;;;;;12.13;8.02;;;19.90;54.80;;;;;;5040835;28;20252;-77
2023/04/09 11:13:20;;;;;;;12.90;8.27;;;19.90;54.60;;;;;;5056272;28;20277;-75
2023/04/09 11:15:49;;;;;;;12.38;8.38;;;19.90;54.80;;;;;;5047230;28;20660;-74
2023/04/09 11:18:21;;;;;;;13.15;8.50;;;19.90;54.60;;;;;;5053163;28;20602;-74
2023/04/09 11:20:49;;;;;;;19.73;12.05;;;19.90;54.30;;;;;;5048221;28;20705;-74
2023/04/09 11:23:19;;;;;;;13.65;8.88;;;19.90;54.90;;;;;;5049140;28;20206;-74
2023/04/09 11:25:50;;;;;;;26.20;14.95;;;20.00;55.20;;;;;;5046816;28;20230;-73
2023/04/09 11:28:19;;;;;;;35.42;19.13;;;20.00;54.80;;;;;;5048649;28;20198;-76
2023/04/09 11:30:50;;;;;;;48.38;28.48;;;20.00;55.00;;;;;;5045623;28;20222;-74
2023/04/09 11:33:18;;;;;;;23.38;13.25;;;20.00;55.20;;;;;;5049241;28;20229;-74
2023/04/09 11:35:47;;;;;;;20.80;13.50;;;20.00;54.90;;;;;;5049003;28;20233;-73
2023/04/09 11:38:16;;;;;;;29.85;18.73;;;20.00;54.50;;;;;;5048429;28;20223;-72
2023/04/09 11:40:50;;;;;;;24.17;15.13;;;20.00;55.50;;;;;;5044378;28;20583;-74
2023/04/09 11:43:21;;;;;;;18.75;10.80;;;19.90;54.30;;;;;;5046856;28;20225;-76
2023/04/09 11:45:49;;;;;;;13.52;9.32;;;19.90;54.40;;;;;;5048243;28;20266;-76
2023/04/09 11:48:20;;;;;;;14.07;9.73;;;19.90;54.80;;;;;;5046043;28;20199;-76
2023/04/09 11:50:48;;;;;;;12.65;8.35;;;19.90;55.00;;;;;;5047833;28;20289;-76
2023/04/09 11:53:18;;;;;;;15.27;8.40;;;19.90;55.00;;;;;;5051033;28;20200;-76
2023/04/09 11:55:51;;;;;;;17.10;11.55;;;19.90;55.10;;;;;;5054968;28;20203;-76
2023/04/09 11:58:22;;;;;;;12.32;8.82;;;19.90;55.00;;;;;;5047185;28;20192;-76
2023/04/09 12:00:54;;;;;;;15.15;9.18;;;19.90;55.10;;;;;;5051087;28;20272;-76
2023/04/09 12:03:29;;;;;;;15.68;9.32;;;19.90;55.00;;;;;;5048182;28;20204;-75
2023/04/09 12:06:01;;;;;;;18.63;11.50;;;19.90;55.00;;;;;;5054269;28;20206;-77
2023/04/09 12:08:30;;;;;;;13.80;9.80;;;19.80;55.00;;;;;;5048967;28;20195;-76
2023/04/09 12:11:09;;;;;;;14.57;9.88;;;19.80;55.00;;;;;;5054645;28;20233;-76
2023/04/09 12:13:41;;;;;;;14.57;9.30;;;19.70;55.60;;;;;;5047773;28;20237;-76
2023/04/09 12:16:10;;;;;;;20.50;14.07;;;19.70;54.50;;;;;;5047864;28;20199;-76
2023/04/09 12:18:39;;;;;;;14.63;9.03;;;19.60;54.80;;;;;;5048954;28;20294;-75
2023/04/09 12:21:07;;;;;;;16.15;9.88;;;19.60;54.90;;;;;;5045974;28;20191;-77
2023/04/09 12:23:36;;;;;;;14.70;8.90;;;19.60;54.90;;;;;;5059229;28;20199;-75
2023/04/09 12:26:06;;;;;;;13.37;9.17;;;19.60;54.90;;;;;;5046767;28;20222;-76
2023/04/09 12:28:34;;;;;;;16.73;9.70;;;19.60;55.20;;;;;;5053080;28;20640;-77
2023/04/09 12:31:02;;;;;;;16.38;10.15;;;19.60;55.60;;;;;;5052999;28;20195;-75
2023/04/09 12:33:31;;;;;;;15.97;9.73;;;19.50;55.50;;;;;;5052003;28;20361;-75
2023/04/09 12:35:59;;;;;;;14.13;10.07;;;19.60;55.50;;;;;;5052932;28;20285;-75
2023/04/09 12:38:28;;;;;;;15.35;10.35;;;19.60;55.70;;;;;;5059836;28;20222;-76
2023/04/09 12:40:56;;;;;;;16.90;10.50;;;19.60;55.90;;;;;;5048191;28;20647;-76
2023/04/09 12:43:26;;;;;;;16.83;10.27;;;19.60;56.20;;;;;;5051939;28;20199;-76
2023/04/09 12:45:54;;;;;;;17.57;10.07;;;19.50;55.80;;;;;;5056805;28;20226;-76